Airfield :
LOGIN :

Register | Disclaimer

   EN    FR    IT 

 










Legend :    VFR   Marginal VFR   IFR   Intensive IFR   Very Intensive IFR
Visi :
Ceiling :
>= 8 km
>= 3000ft
5 to 8 km
1000 to 3000 ft
1500m to 5 km
500 to 1000 ft
800 to 1500m
200 to 500 ft
< 800m
< 200 ft
Symbols :   Thunderstorms  Fog  Heavy snow  Heavy precipitations  Wind > 20 kt
SIGMETs :     Misc.  Thunderstorms  Icing  Turbulence  Mountain Waves  Volcanic Ashes







- Airport Elevation : 353 ft
- IATA code : ZAG


LDZA - Zagreb Pleso

CURRENT METAR :
  • 171430Z 04014KT 2500 -SN FEW014 BKN033 OVC045 M01/M03 Q1025 R05/490293 NOSIG

EXPIRED METARs :
  • 171400Z 04014KT 010V070 3000 -SN BKN020 OVC045 M01/M03 Q1025 R05/490293 NOSIG
  • 171330Z 05013KT 020V090 2500 -SN DRSN SCT023 BKN030 OVC045 M01/M04 Q1025 R05/490293 BECMG 3000
  • 171300Z 04018KT 3500 -SN DRSN SCT023 BKN030 OVC045 M01/M04 Q1024 R05/490293 NOSIG
  • 171230Z 04017KT 8000 -SN DRSN FEW025 SCT037 OVC045 M00/M05 Q1024 R05/490293 TEMPO 4000
  • 171200Z 04018KT 9999 -SN FEW025 M00/M05 Q1024 R05/490293 NOSIG

TAF TAF LDZA
Valid from the 17 at 12:00 until the 18 at 12:00 UTC


171125Z 1712/1812 04015KT 7000 OVC035 TX00/1712Z TNM03/1806Z
TEMPO 1712/1724 4000 -SN
ATIS : +385 1 6-259-214
No reported NOTAMs for that airfield.
2 SIGMETs reported for the Zagreb FIR (LDZO) :
 
Severe turbulence
LDZO SIGMET 4 VALID 171400/171800 LDZA
LDZO ZAGREB FIR SEV TURB FCST WI N4542 E01459 - N4326 E01716 - N4302 E01624 - N4457 E01334 - N4540 E01323 - N4542 E01459 SFC/FL070 STNR NC=
Severe turbulence
LDZO SIGMET 3 VALID 171000/171400 LDZA
LDZO ZAGREB FIR SEV TURB FCST WI N4528 E01459 - N4343 E01648 - N4323 E01556 - N4457 E01334 - N4531 E01323 - N4528 E01459 SFC/FL070 STNR NC=



MET'MAP, your aeronautical weather chart ! - Copyright ORBIFLY December 2007 - Disclaimer

ORBIFLY MET'MAP TEAM :

Programming & Development : Alexandra Zaïnal
Concept & Development : Baudouin d'Aumeries
Co-Development & Prog : Marc-Olivier Méhu
Technical & hardware support : Manuel Goepfert

Contact : metmap@orbifly.com




SOURCES & CREDITS :

   NOAA